createdAt,value
2023-04-18T00:00:30.624Z,100781.56
2023-04-18T00:05:32.345Z,100778.91
2023-04-18T00:10:34.002Z,100774.56
2023-04-18T00:15:35.747Z,100777.19
2023-04-18T00:20:39.011Z,100780.66
2023-04-18T00:25:40.935Z,100772.78
2023-04-18T00:30:42.654Z,100774.50
2023-04-18T00:35:44.570Z,100766.66
2023-04-18T00:40:46.368Z,100766.63
2023-04-18T00:45:48.100Z,100769.16
2023-04-18T00:50:49.871Z,100765.66
2023-04-18T00:55:51.858Z,100762.09
2023-04-18T01:00:54.726Z,100760.31
2023-04-18T01:05:57.534Z,100757.66
2023-04-18T01:11:00.021Z,100760.28
2023-04-18T01:16:01.833Z,100754.09
2023-04-18T01:21:06.237Z,100763.63
2023-04-18T01:26:07.959Z,100761.84
2023-04-18T01:31:09.683Z,100760.16
2023-04-18T01:36:11.803Z,100757.47
2023-04-18T01:41:13.510Z,100755.75
2023-04-18T01:46:17.361Z,100751.53
2023-04-18T01:51:19.085Z,100755.06
2023-04-18T01:56:21.167Z,100761.03
2023-04-18T02:01:22.993Z,100755.84
2023-04-18T02:06:24.826Z,100761.19
2023-04-18T02:11:26.791Z,100763.75
2023-04-18T02:16:28.532Z,100755.94
2023-04-18T02:21:30.726Z,100753.31
2023-04-18T02:26:32.504Z,100743.69
2023-04-18T02:31:34.283Z,100759.41
2023-04-18T02:36:36.023Z,100765.44
2023-04-18T02:41:39.304Z,100760.28
2023-04-18T02:46:41.013Z,100756.00
2023-04-18T02:51:47.112Z,100757.66
2023-04-18T02:56:49.951Z,100748.03
2023-04-18T03:01:57.651Z,100762.06
2023-04-18T03:06:59.868Z,100762.81
2023-04-18T03:12:04.165Z,100770.94
2023-04-18T03:17:07.277Z,100762.22
2023-04-18T03:22:16.184Z,100763.94
2023-04-18T03:27:25.961Z,100775.19
2023-04-18T03:32:28.027Z,100770.09
2023-04-18T03:37:29.823Z,100770.03
2023-04-18T03:42:32.736Z,100776.19
2023-04-18T03:47:34.627Z,100779.75
2023-04-18T03:52:36.472Z,100783.31
2023-04-18T03:57:40.836Z,100772.00
2023-04-18T04:02:47.808Z,100787.66
2023-04-18T04:07:54.993Z,100782.41
2023-04-18T04:12:57.740Z,100790.25
2023-04-18T04:17:59.754Z,100800.78
2023-04-18T04:23:03.467Z,100793.81
2023-04-18T04:28:08.222Z,100799.06
2023-04-18T04:33:25.099Z,100800.84
2023-04-18T04:38:30.988Z,100799.06
2023-04-18T04:43:34.117Z,100815.59
2023-04-18T04:48:36.134Z,100819.06
2023-04-18T04:53:39.004Z,100819.94
2023-04-18T04:58:42.143Z,100823.44
2023-04-18T05:03:49.944Z,100833.88
2023-04-18T05:08:51.878Z,100833.91
2023-04-18T05:13:53.541Z,100834.78
2023-04-18T05:18:55.251Z,100833.03
2023-04-18T05:23:56.969Z,100837.41
2023-04-18T05:28:58.660Z,100834.81
2023-04-18T05:34:00.710Z,100833.88
2023-04-18T05:39:02.455Z,100832.16
2023-04-18T05:44:05.624Z,100828.69
2023-04-18T05:49:07.606Z,100848.75
2023-04-18T05:54:09.373Z,100846.09
2023-04-18T05:59:11.320Z,100853.94
2023-04-18T06:04:13.523Z,100849.59
2023-04-18T06:09:15.768Z,100850.50
2023-04-18T06:14:17.554Z,100864.41
2023-04-18T06:19:19.494Z,100856.56
2023-04-18T06:24:21.458Z,100857.44
2023-04-18T06:29:23.550Z,100869.63
2023-04-18T06:34:25.853Z,100878.31
2023-04-18T06:39:28.047Z,100884.41
2023-04-18T06:44:29.745Z,100890.50
2023-04-18T06:49:31.591Z,100884.41
2023-04-18T06:54:33.506Z,100883.53
2023-04-18T06:59:35.893Z,100872.25
2023-04-18T07:04:38.129Z,100873.97
2023-04-18T07:09:40.160Z,100875.69
2023-04-18T07:14:41.932Z,100869.59
2023-04-18T07:19:44.350Z,100877.44
2023-04-18T07:24:46.176Z,100877.44
2023-04-18T07:29:47.889Z,100880.06
2023-04-18T07:34:51.476Z,100893.97
2023-04-18T07:39:53.287Z,100897.47
2023-04-18T07:45:01.055Z,100891.38
2023-04-18T07:50:03.150Z,100894.00
2023-04-18T07:55:05.682Z,100893.09
2023-04-18T08:00:08.021Z,100898.31
2023-04-18T08:05:14.522Z,100898.34
2023-04-18T08:10:16.337Z,100897.44
2023-04-18T08:15:18.377Z,100894.81
2023-04-18T08:20:20.137Z,100893.97
2023-04-18T08:25:22.338Z,100888.72
2023-04-18T08:30:24.150Z,100894.75
2023-04-18T08:35:26.273Z,100899.97
2023-04-18T08:40:30.190Z,100897.38
2023-04-18T08:45:33.328Z,100894.72
2023-04-18T08:50:35.219Z,100896.41
2023-04-18T08:55:37.468Z,100908.63
2023-04-18T09:00:39.186Z,100906.06
2023-04-18T09:05:40.979Z,100908.63
2023-04-18T09:10:46.523Z,100909.44
2023-04-18T09:15:56.185Z,100906.03
2023-04-18T09:21:18.614Z,100905.97
2023-04-18T09:26:35.822Z,100906.81
2023-04-18T09:32:03.809Z,100906.00
2023-04-18T09:37:13.678Z,100911.22
2023-04-18T09:42:15.799Z,100902.50
2023-04-18T09:47:17.500Z,100910.28
2023-04-18T09:52:21.300Z,100908.63
2023-04-18T09:57:28.762Z,100909.50
2023-04-18T10:02:48.183Z,100913.84
2023-04-18T10:07:51.053Z,100905.94
2023-04-18T10:13:00.697Z,100907.75
2023-04-18T10:18:08.751Z,100905.13
2023-04-18T10:23:32.688Z,100905.91
2023-04-18T10:28:53.778Z,100912.03
2023-04-18T10:39:21.967Z,100899.84
2023-04-18T10:44:24.262Z,100907.63
2023-04-18T10:49:30.299Z,100907.59
2023-04-18T10:54:47.116Z,100903.19
2023-04-18T10:59:51.001Z,100896.19
2023-04-18T11:05:04.793Z,100901.41
2023-04-18T11:10:08.538Z,100899.69
2023-04-18T11:15:17.630Z,100905.84
2023-04-18T11:20:19.645Z,100903.19
2023-04-18T11:25:36.579Z,100904.88
2023-04-18T11:30:42.430Z,100910.06
2023-04-18T11:35:45.833Z,100898.56
2023-04-18T11:40:48.475Z,100902.22
2023-04-18T11:45:57.641Z,100911.81
2023-04-18T11:50:59.354Z,100910.06
2023-04-18T11:56:03.409Z,100908.16
2023-04-18T12:01:24.370Z,100908.31
2023-04-18T12:06:26.964Z,100908.31
2023-04-18T12:11:29.456Z,100916.75
2023-04-18T12:16:31.503Z,100909.75
2023-04-18T12:21:33.320Z,100913.28
2023-04-18T12:26:35.433Z,100913.28
2023-04-18T12:31:37.397Z,100913.25
2023-04-18T12:36:39.156Z,100914.16
2023-04-18T12:41:40.894Z,100909.72
2023-04-18T12:46:42.698Z,100915.00
2023-04-18T12:51:44.524Z,100908.97
2023-04-18T12:56:46.462Z,100906.38
2023-04-18T13:01:48.095Z,100908.84
2023-04-18T13:06:49.817Z,100910.63
2023-04-18T13:11:51.610Z,100910.56
2023-04-18T13:16:53.428Z,100904.59
2023-04-18T13:21:55.759Z,100901.13
2023-04-18T13:26:57.538Z,100897.59
2023-04-18T13:31:59.353Z,100903.63
2023-04-18T13:37:01.307Z,100900.06
2023-04-18T13:42:03.424Z,100909.66
2023-04-18T13:47:07.049Z,100911.34
2023-04-18T13:52:08.810Z,100903.50
2023-04-18T13:57:13.311Z,100907.06
2023-04-18T14:02:15.302Z,100903.47
2023-04-18T14:07:17.727Z,100899.13
2023-04-18T14:12:19.330Z,100901.72
2023-04-18T14:17:21.062Z,100898.25
2023-04-18T14:22:22.805Z,100891.94
2023-04-18T14:27:26.225Z,100902.34
2023-04-18T14:32:27.932Z,100898.91
2023-04-18T14:37:29.548Z,100897.91
2023-04-18T14:42:31.220Z,100899.53
2023-04-18T14:47:34.630Z,100892.81
2023-04-18T14:52:36.430Z,100878.78
2023-04-18T14:57:39.559Z,100886.59
2023-04-18T15:02:42.118Z,100890.06
2023-04-18T15:07:45.120Z,100884.63
2023-04-18T15:12:47.034Z,100879.47
2023-04-18T15:17:49.021Z,100880.38
2023-04-18T15:22:50.813Z,100883.84
2023-04-18T15:27:52.911Z,100885.69
2023-04-18T15:32:55.730Z,100884.84
2023-04-18T15:37:57.715Z,100887.34
2023-04-18T15:43:00.753Z,100887.31
2023-04-18T15:48:02.547Z,100883.81
2023-04-18T15:53:04.236Z,100883.72
2023-04-18T15:58:06.648Z,100883.00
2023-04-18T16:03:10.348Z,100878.75
2023-04-18T16:08:12.162Z,100880.47
2023-04-18T16:13:14.096Z,100886.50
2023-04-18T16:18:15.833Z,100877.09
2023-04-18T16:23:17.580Z,100884.81
2023-04-18T16:28:19.283Z,100876.72
2023-04-18T16:33:24.719Z,100888.28
2023-04-18T16:38:27.401Z,100875.78
2023-04-18T16:43:31.040Z,100880.31
2023-04-18T16:48:32.816Z,100883.06
2023-04-18T16:53:34.576Z,100882.25
2023-04-18T16:58:36.227Z,100878.84
2023-04-18T17:03:38.030Z,100878.91
2023-04-18T17:08:39.797Z,100881.63
2023-04-18T17:13:41.864Z,100886.00
2023-04-18T17:18:43.562Z,100891.19
2023-04-18T17:23:45.666Z,100886.59
2023-04-18T17:28:47.335Z,100888.50
2023-04-18T17:33:51.945Z,100890.22
2023-04-18T17:38:53.600Z,100892.91
2023-04-18T17:43:55.446Z,100896.41
2023-04-18T17:48:57.223Z,100894.63
2023-04-18T17:53:58.968Z,100889.41
2023-04-18T17:59:01.132Z,100883.19
2023-04-18T18:04:03.158Z,100886.81
2023-04-18T18:09:05.375Z,100888.63
2023-04-18T18:14:07.197Z,100894.63
2023-04-18T18:19:09.743Z,100899.94
2023-04-18T18:24:11.689Z,100891.03
2023-04-18T18:29:14.115Z,100889.78
2023-04-18T18:34:17.024Z,100895.88
2023-04-18T18:39:18.963Z,100906.53
2023-04-18T18:44:21.200Z,100901.25
2023-04-18T18:49:23.020Z,100902.38
2023-04-18T18:54:25.920Z,100903.34
2023-04-18T18:59:27.605Z,100899.69
2023-04-18T19:04:29.621Z,100909.63
2023-04-18T19:09:31.625Z,100908.75
2023-04-18T19:14:33.679Z,100909.69
2023-04-18T19:19:35.592Z,100902.69
2023-04-18T19:24:37.342Z,100899.22
2023-04-18T19:29:39.524Z,100897.63
2023-04-18T19:34:41.326Z,100901.97
2023-04-18T19:39:42.978Z,100898.38
2023-04-18T19:44:44.593Z,100892.88
2023-04-18T19:49:46.272Z,100888.81
2023-04-18T19:54:47.998Z,100889.78
2023-04-18T19:59:49.598Z,100894.00
2023-04-18T20:04:51.447Z,100887.22
2023-04-18T20:09:53.388Z,100885.22
2023-04-18T20:14:55.838Z,100887.03
2023-04-18T20:19:59.517Z,100879.91
2023-04-18T20:25:01.599Z,100876.66
2023-04-18T20:30:03.523Z,100883.81
2023-04-18T20:35:05.772Z,100877.75
2023-04-18T20:40:10.881Z,100883.00
2023-04-18T20:45:13.700Z,100867.25
2023-04-18T20:50:18.069Z,100874.03
2023-04-18T20:55:19.940Z,100867.91
2023-04-18T21:00:21.805Z,100873.38
2023-04-18T21:05:23.668Z,100866.56
2023-04-18T21:10:26.256Z,100871.88
2023-04-18T21:15:27.955Z,100858.59
2023-04-18T21:20:29.607Z,100861.38
2023-04-18T21:25:31.337Z,100857.06
2023-04-18T21:30:33.090Z,100846.38
2023-04-18T21:35:34.808Z,100854.34
2023-04-18T21:40:37.552Z,100848.34
2023-04-18T21:45:39.249Z,100843.91
2023-04-18T21:50:43.151Z,100836.81
2023-04-18T21:55:44.835Z,100840.09
2023-04-18T22:00:46.504Z,100832.47
2023-04-18T22:05:48.214Z,100826.38
2023-04-18T22:10:50.473Z,100820.09
2023-04-18T22:15:52.168Z,100821.81
2023-04-18T22:20:54.867Z,100815.88
2023-04-18T22:25:56.582Z,100814.22
2023-04-18T22:30:58.486Z,100807.03
2023-04-18T22:36:00.791Z,100806.31
2023-04-18T22:41:02.431Z,100812.34
2023-04-18T22:46:04.131Z,100804.59
2023-04-18T22:51:06.195Z,100796.66
2023-04-18T22:56:08.045Z,100795.81
2023-04-18T23:01:09.758Z,100795.06
2023-04-18T23:06:11.414Z,100796.94
2023-04-18T23:11:13.607Z,100790.81
2023-04-18T23:16:15.502Z,100786.34
2023-04-18T23:21:17.867Z,100789.88
2023-04-18T23:26:19.682Z,100782.97
2023-04-18T23:31:21.962Z,100782.66
2023-04-18T23:36:23.649Z,100783.44
2023-04-18T23:41:25.569Z,100771.44
2023-04-18T23:46:27.719Z,100770.47
2023-04-18T23:51:29.301Z,100763.53
2023-04-18T23:56:30.998Z,100764.38
